sensor_id;sensor_type;location;lat;lon;timestamp;pressure;altitude;pressure_sealevel;temperature
50496;BMP280;38806;51.554;5.704;2022-08-19T00:00:39;100734.13;;;15.02
50496;BMP280;38806;51.554;5.704;2022-08-19T00:02:40;100727.25;;;15.01
50496;BMP280;38806;51.554;5.704;2022-08-19T00:04:41;100671.91;;;15.15
50496;BMP280;38806;51.554;5.704;2022-08-19T00:06:43;100663.38;;;15.11
50496;BMP280;38806;51.554;5.704;2022-08-19T00:08:44;100679.75;;;15.00
50496;BMP280;38806;51.554;5.704;2022-08-19T00:10:44;100653.53;;;15.08
50496;BMP280;38806;51.554;5.704;2022-08-19T00:12:46;100658.28;;;15.02
50496;BMP280;38806;51.554;5.704;2022-08-19T00:14:47;100662.84;;;14.94
50496;BMP280;38806;51.554;5.704;2022-08-19T00:16:48;100674.69;;;14.91
50496;BMP280;38806;51.554;5.704;2022-08-19T00:18:48;100691.00;;;14.85
50496;BMP280;38806;51.554;5.704;2022-08-19T00:20:49;100695.47;;;14.83
50496;BMP280;38806;51.554;5.704;2022-08-19T00:22:49;100696.47;;;14.80
50496;BMP280;38806;51.554;5.704;2022-08-19T00:24:49;100688.84;;;14.78
50496;BMP280;38806;51.554;5.704;2022-08-19T00:26:50;100673.81;;;14.83
50496;BMP280;38806;51.554;5.704;2022-08-19T00:28:51;100689.16;;;14.74
50496;BMP280;38806;51.554;5.704;2022-08-19T00:30:51;100697.03;;;14.72
50496;BMP280;38806;51.554;5.704;2022-08-19T00:32:53;100689.16;;;14.74
50496;BMP280;38806;51.554;5.704;2022-08-19T00:34:55;100716.28;;;14.69
50496;BMP280;38806;51.554;5.704;2022-08-19T00:36:56;100739.97;;;14.63
50496;BMP280;38806;51.554;5.704;2022-08-19T00:38:56;100759.50;;;14.56
50496;BMP280;38806;51.554;5.704;2022-08-19T00:40:57;100779.72;;;14.49
50496;BMP280;38806;51.554;5.704;2022-08-19T00:42:57;100804.91;;;14.38
50496;BMP280;38806;51.554;5.704;2022-08-19T00:44:57;100841.38;;;14.26
50496;BMP280;38806;51.554;5.704;2022-08-19T00:46:58;100866.78;;;14.18
50496;BMP280;38806;51.554;5.704;2022-08-19T00:49:00;100881.81;;;14.07
50496;BMP280;38806;51.554;5.704;2022-08-19T00:51:04;100878.13;;;14.11
50496;BMP280;38806;51.554;5.704;2022-08-19T00:53:06;100867.78;;;14.15
50496;BMP280;38806;51.554;5.704;2022-08-19T00:55:08;100872.94;;;14.13
50496;BMP280;38806;51.554;5.704;2022-08-19T00:57:15;100874.41;;;14.14
50496;BMP280;38806;51.554;5.704;2022-08-19T00:59:17;100785.47;;;14.40
50496;BMP280;38806;51.554;5.704;2022-08-19T01:01:18;100661.53;;;14.82
50496;BMP280;38806;51.554;5.704;2022-08-19T01:03:20;100498.59;;;15.55
50496;BMP280;38806;51.554;5.704;2022-08-19T01:05:25;100557.66;;;15.30
50496;BMP280;38806;51.554;5.704;2022-08-19T01:07:27;100492.47;;;15.54
50496;BMP280;38806;51.554;5.704;2022-08-19T01:09:28;100613.94;;;15.05
50496;BMP280;38806;51.554;5.704;2022-08-19T01:11:31;100480.97;;;15.48
50496;BMP280;38806;51.554;5.704;2022-08-19T01:13:33;100408.84;;;15.71
50496;BMP280;38806;51.554;5.704;2022-08-19T01:15:40;100372.38;;;15.93
50496;BMP280;38806;51.554;5.704;2022-08-19T01:17:42;100373.44;;;15.90
50496;BMP280;38806;51.554;5.704;2022-08-19T01:19:45;100451.38;;;15.63
50496;BMP280;38806;51.554;5.704;2022-08-19T01:22:01;100506.50;;;15.39
50496;BMP280;38806;51.554;5.704;2022-08-19T01:24:02;100534.63;;;15.23
50496;BMP280;38806;51.554;5.704;2022-08-19T01:26:02;100540.13;;;15.18
50496;BMP280;38806;51.554;5.704;2022-08-19T01:28:03;100561.66;;;15.10
50496;BMP280;38806;51.554;5.704;2022-08-19T01:30:04;100582.47;;;15.02
50496;BMP280;38806;51.554;5.704;2022-08-19T01:32:07;100591.91;;;14.95
50496;BMP280;38806;51.554;5.704;2022-08-19T01:34:08;100594.41;;;14.93
50496;BMP280;38806;51.554;5.704;2022-08-19T01:36:16;100628.59;;;14.78
50496;BMP280;38806;51.554;5.704;2022-08-19T01:38:26;100660.22;;;14.64
50496;BMP280;38806;51.554;5.704;2022-08-19T01:40:31;100658.84;;;14.57
50496;BMP280;38806;51.554;5.704;2022-08-19T01:42:32;100703.97;;;14.44
50496;BMP280;38806;51.554;5.704;2022-08-19T01:44:33;100718.59;;;14.35
50496;BMP280;38806;51.554;5.704;2022-08-19T01:46:33;100731.88;;;14.33
50496;BMP280;38806;51.554;5.704;2022-08-19T01:48:39;100731.44;;;14.29
50496;BMP280;38806;51.554;5.704;2022-08-19T01:50:40;100722.53;;;14.34
50496;BMP280;38806;51.554;5.704;2022-08-19T01:52:42;100698.56;;;14.44
50496;BMP280;38806;51.554;5.704;2022-08-19T01:54:42;100679.56;;;14.49
50496;BMP280;38806;51.554;5.704;2022-08-19T01:56:43;100674.41;;;14.51
50496;BMP280;38806;51.554;5.704;2022-08-19T01:58:48;100708.66;;;14.43
50496;BMP280;38806;51.554;5.704;2022-08-19T02:00:50;100739.78;;;14.31
50496;BMP280;38806;51.554;5.704;2022-08-19T02:02:51;100758.00;;;14.25
50496;BMP280;38806;51.554;5.704;2022-08-19T02:04:51;100747.44;;;14.27
50496;BMP280;38806;51.554;5.704;2022-08-19T02:06:52;100771.38;;;14.17
50496;BMP280;38806;51.554;5.704;2022-08-19T02:08:52;100772.09;;;14.18
50496;BMP280;38806;51.554;5.704;2022-08-19T02:10:53;100770.09;;;14.18
50496;BMP280;38806;51.554;5.704;2022-08-19T02:12:54;100778.50;;;14.15
50496;BMP280;38806;51.554;5.704;2022-08-19T02:14:54;100790.84;;;14.10
50496;BMP280;38806;51.554;5.704;2022-08-19T02:16:54;100809.59;;;14.02
50496;BMP280;38806;51.554;5.704;2022-08-19T02:18:54;100785.69;;;14.06
50496;BMP280;38806;51.554;5.704;2022-08-19T02:20:55;100780.81;;;14.05
50496;BMP280;38806;51.554;5.704;2022-08-19T02:22:55;100793.63;;;13.99
50496;BMP280;38806;51.554;5.704;2022-08-19T02:24:55;100795.84;;;13.95
50496;BMP280;38806;51.554;5.704;2022-08-19T02:26:56;100785.72;;;14.01
50496;BMP280;38806;51.554;5.704;2022-08-19T02:28:57;100784.53;;;13.96
50496;BMP280;38806;51.554;5.704;2022-08-19T02:30:57;100808.16;;;13.90
50496;BMP280;38806;51.554;5.704;2022-08-19T02:32:58;100799.78;;;13.94
50496;BMP280;38806;51.554;5.704;2022-08-19T02:34:59;100790.44;;;13.95
50496;BMP280;38806;51.554;5.704;2022-08-19T02:37:00;100796.13;;;13.91
50496;BMP280;38806;51.554;5.704;2022-08-19T02:39:00;100795.63;;;13.93
50496;BMP280;38806;51.554;5.704;2022-08-19T02:41:04;100823.22;;;13.80
50496;BMP280;38806;51.554;5.704;2022-08-19T02:43:07;100824.66;;;13.81
50496;BMP280;38806;51.554;5.704;2022-08-19T02:45:08;100818.03;;;13.82
50496;BMP280;38806;51.554;5.704;2022-08-19T02:47:10;100775.19;;;13.97
50496;BMP280;38806;51.554;5.704;2022-08-19T02:49:10;100783.81;;;13.96
50496;BMP280;38806;51.554;5.704;2022-08-19T02:51:19;100797.84;;;13.89
50496;BMP280;38806;51.554;5.704;2022-08-19T02:53:20;100832.06;;;13.75
50496;BMP280;38806;51.554;5.704;2022-08-19T02:55:22;100852.25;;;13.68
50496;BMP280;38806;51.554;5.704;2022-08-19T02:57:22;100848.84;;;13.68
50496;BMP280;38806;51.554;5.704;2022-08-19T02:59:22;100852.50;;;13.65
50496;BMP280;38806;51.554;5.704;2022-08-19T03:01:30;100875.66;;;13.55
50496;BMP280;38806;51.554;5.704;2022-08-19T03:03:30;100874.94;;;13.54
50496;BMP280;38806;51.554;5.704;2022-08-19T03:05:31;100873.16;;;13.57
50496;BMP280;38806;51.554;5.704;2022-08-19T03:07:32;100877.84;;;13.56
50496;BMP280;38806;51.554;5.704;2022-08-19T03:09:32;100832.84;;;13.70
50496;BMP280;38806;51.554;5.704;2022-08-19T03:11:33;100844.16;;;13.68
50496;BMP280;38806;51.554;5.704;2022-08-19T03:13:33;100857.19;;;13.64
50496;BMP280;38806;51.554;5.704;2022-08-19T03:15:33;100869.50;;;13.60
50496;BMP280;38806;51.554;5.704;2022-08-19T03:17:34;100888.19;;;13.52
50496;BMP280;38806;51.554;5.704;2022-08-19T03:19:35;100895.31;;;13.50
50496;BMP280;38806;51.554;5.704;2022-08-19T03:21:35;100891.88;;;13.49
50496;BMP280;38806;51.554;5.704;2022-08-19T03:23:35;100885.75;;;13.49
50496;BMP280;38806;51.554;5.704;2022-08-19T03:25:38;100871.00;;;13.55
50496;BMP280;38806;51.554;5.704;2022-08-19T03:27:38;100869.25;;;13.58
50496;BMP280;38806;51.554;5.704;2022-08-19T03:29:38;100860.16;;;13.61
50496;BMP280;38806;51.554;5.704;2022-08-19T03:31:41;100856.94;;;13.62
50496;BMP280;38806;51.554;5.704;2022-08-19T03:33:43;100855.50;;;13.61
50496;BMP280;38806;51.554;5.704;2022-08-19T03:35:44;100866.06;;;13.59
50496;BMP280;38806;51.554;5.704;2022-08-19T03:37:45;100891.88;;;13.49
50496;BMP280;38806;51.554;5.704;2022-08-19T03:39:45;100891.41;;;13.45
50496;BMP280;38806;51.554;5.704;2022-08-19T03:41:46;100885.25;;;13.45
50496;BMP280;38806;51.554;5.704;2022-08-19T03:43:47;100859.69;;;13.51
50496;BMP280;38806;51.554;5.704;2022-08-19T03:45:48;100865.34;;;13.53
50496;BMP280;38806;51.554;5.704;2022-08-19T03:47:48;100872.22;;;13.49
50496;BMP280;38806;51.554;5.704;2022-08-19T03:49:49;100874.94;;;13.49
50496;BMP280;38806;51.554;5.704;2022-08-19T03:51:49;100878.16;;;13.42
50496;BMP280;38806;51.554;5.704;2022-08-19T03:53:50;100855.28;;;13.48
50496;BMP280;38806;51.554;5.704;2022-08-19T03:55:51;100884.53;;;13.38
50496;BMP280;38806;51.554;5.704;2022-08-19T03:57:51;100891.88;;;13.38
50496;BMP280;38806;51.554;5.704;2022-08-19T03:59:52;100892.91;;;13.35
50496;BMP280;38806;51.554;5.704;2022-08-19T04:01:57;100864.38;;;13.45
50496;BMP280;38806;51.554;5.704;2022-08-19T04:03:58;100820.56;;;13.63
50496;BMP280;38806;51.554;5.704;2022-08-19T04:05:58;100796.19;;;13.75
50496;BMP280;38806;51.554;5.704;2022-08-19T04:07:59;100841.75;;;13.59
50496;BMP280;38806;51.554;5.704;2022-08-19T04:10:00;100872.47;;;13.45
50496;BMP280;38806;51.554;5.704;2022-08-19T04:12:00;100892.63;;;13.38
50496;BMP280;38806;51.554;5.704;2022-08-19T04:14:01;100909.81;;;13.30
50496;BMP280;38806;51.554;5.704;2022-08-19T04:16:02;100914.53;;;13.29
50496;BMP280;38806;51.554;5.704;2022-08-19T04:18:03;100915.75;;;13.28
50496;BMP280;38806;51.554;5.704;2022-08-19T04:20:07;100913.28;;;13.25
50496;BMP280;38806;51.554;5.704;2022-08-19T04:22:08;100902.47;;;13.30
50496;BMP280;38806;51.554;5.704;2022-08-19T04:24:09;100884.56;;;13.33
50496;BMP280;38806;51.554;5.704;2022-08-19T04:26:18;100890.44;;;13.31
50496;BMP280;38806;51.554;5.704;2022-08-19T04:28:19;100873.25;;;13.34
50496;BMP280;38806;51.554;5.704;2022-08-19T04:30:19;100875.69;;;13.38
50496;BMP280;38806;51.554;5.704;2022-08-19T04:32:22;100858.97;;;13.40
50496;BMP280;38806;51.554;5.704;2022-08-19T04:34:24;100870.56;;;13.34
50496;BMP280;38806;51.554;5.704;2022-08-19T04:36:28;100885.50;;;13.30
50496;BMP280;38806;51.554;5.704;2022-08-19T04:38:28;100854.06;;;13.38
50496;BMP280;38806;51.554;5.704;2022-08-19T04:40:29;100907.16;;;13.19
50496;BMP280;38806;51.554;5.704;2022-08-19T04:42:48;100867.13;;;13.34
50496;BMP280;38806;51.554;5.704;2022-08-19T04:44:48;100882.34;;;13.26
50496;BMP280;38806;51.554;5.704;2022-08-19T04:46:50;100889.22;;;13.27
50496;BMP280;38806;51.554;5.704;2022-08-19T04:48:51;100859.25;;;13.36
50496;BMP280;38806;51.554;5.704;2022-08-19T04:50:53;100839.06;;;13.48
50496;BMP280;38806;51.554;5.704;2022-08-19T04:52:57;100792.81;;;13.63
50496;BMP280;38806;51.554;5.704;2022-08-19T04:54:58;100797.50;;;13.68
50496;BMP280;38806;51.554;5.704;2022-08-19T04:56:58;100804.59;;;13.65
50496;BMP280;38806;51.554;5.704;2022-08-19T04:58:59;100747.75;;;13.82
50496;BMP280;38806;51.554;5.704;2022-08-19T05:01:04;100736.16;;;13.87
50496;BMP280;38806;51.554;5.704;2022-08-19T05:03:04;100761.78;;;13.81
50496;BMP280;38806;51.554;5.704;2022-08-19T05:05:05;100721.63;;;13.96
50496;BMP280;38806;51.554;5.704;2022-08-19T05:07:07;100717.38;;;14.00
50496;BMP280;38806;51.554;5.704;2022-08-19T05:09:07;100721.06;;;14.03
50496;BMP280;38806;51.554;5.704;2022-08-19T05:11:14;100744.47;;;13.95
50496;BMP280;38806;51.554;5.704;2022-08-19T05:13:15;100745.72;;;13.94
50496;BMP280;38806;51.554;5.704;2022-08-19T05:15:17;100739.75;;;14.01
50496;BMP280;38806;51.554;5.704;2022-08-19T05:17:17;100682.56;;;14.21
50496;BMP280;38806;51.554;5.704;2022-08-19T05:19:18;100702.28;;;14.16
50496;BMP280;38806;51.554;5.704;2022-08-19T05:21:39;100718.03;;;14.12
50496;BMP280;38806;51.554;5.704;2022-08-19T05:23:59;100726.88;;;14.13
50496;BMP280;38806;51.554;5.704;2022-08-19T05:25:59;100714.56;;;14.17
50496;BMP280;38806;51.554;5.704;2022-08-19T05:27:59;100718.72;;;14.18
50496;BMP280;38806;51.554;5.704;2022-08-19T05:30:00;100707.34;;;14.25
50496;BMP280;38806;51.554;5.704;2022-08-19T05:32:03;100717.00;;;14.21
50496;BMP280;38806;51.554;5.704;2022-08-19T05:34:05;100695.25;;;14.32
50496;BMP280;38806;51.554;5.704;2022-08-19T05:36:06;100696.22;;;14.34
50496;BMP280;38806;51.554;5.704;2022-08-19T05:38:07;100670.03;;;14.43
50496;BMP280;38806;51.554;5.704;2022-08-19T05:40:09;100612.91;;;14.70
50496;BMP280;38806;51.554;5.704;2022-08-19T05:42:11;100593.38;;;14.78
50496;BMP280;38806;51.554;5.704;2022-08-19T05:44:12;100564.88;;;14.90
50496;BMP280;38806;51.554;5.704;2022-08-19T05:46:18;100517.28;;;15.13
50496;BMP280;38806;51.554;5.704;2022-08-19T05:48:18;100435.41;;;15.46
50496;BMP280;38806;51.554;5.704;2022-08-19T05:50:20;100440.22;;;15.54
50496;BMP280;38806;51.554;5.704;2022-08-19T05:52:21;100442.41;;;15.55
50496;BMP280;38806;51.554;5.704;2022-08-19T05:54:22;100385.28;;;15.79
50496;BMP280;38806;51.554;5.704;2022-08-19T05:56:23;100280.44;;;16.24
50496;BMP280;38806;51.554;5.704;2022-08-19T05:58:23;100266.94;;;16.31
50496;BMP280;38806;51.554;5.704;2022-08-19T06:00:24;100309.97;;;16.27
50496;BMP280;38806;51.554;5.704;2022-08-19T06:02:28;100302.72;;;16.30
50496;BMP280;38806;51.554;5.704;2022-08-19T06:04:30;100287.25;;;16.38
50496;BMP280;38806;51.554;5.704;2022-08-19T06:06:30;100267.97;;;16.49
50496;BMP280;38806;51.554;5.704;2022-08-19T06:08:31;100276.28;;;16.51
50496;BMP280;38806;51.554;5.704;2022-08-19T06:10:33;100236.22;;;16.72
50496;BMP280;38806;51.554;5.704;2022-08-19T06:12:34;100245.84;;;16.73
50496;BMP280;38806;51.554;5.704;2022-08-19T06:14:36;100220.56;;;16.86
50496;BMP280;38806;51.554;5.704;2022-08-19T06:16:38;100223.66;;;16.90
50496;BMP280;38806;51.554;5.704;2022-08-19T06:18:39;100213.38;;;17.04
50496;BMP280;38806;51.554;5.704;2022-08-19T06:20:40;100197.28;;;17.13
50496;BMP280;38806;51.554;5.704;2022-08-19T06:22:42;100199.09;;;17.18
50496;BMP280;38806;51.554;5.704;2022-08-19T06:24:43;100243.28;;;17.11
50496;BMP280;38806;51.554;5.704;2022-08-19T06:26:46;100231.72;;;17.18
50496;BMP280;38806;51.554;5.704;2022-08-19T06:28:47;100220.53;;;17.30
50496;BMP280;38806;51.554;5.704;2022-08-19T06:30:48;100205.69;;;17.38
50496;BMP280;38806;51.554;5.704;2022-08-19T06:32:48;100235.38;;;17.36
50496;BMP280;38806;51.554;5.704;2022-08-19T06:34:48;100219.66;;;17.50
50496;BMP280;38806;51.554;5.704;2022-08-19T06:36:51;100249.72;;;17.44
50496;BMP280;38806;51.554;5.704;2022-08-19T06:38:52;100250.47;;;17.52
50496;BMP280;38806;51.554;5.704;2022-08-19T06:41:00;100264.63;;;17.58
50496;BMP280;38806;51.554;5.704;2022-08-19T06:43:01;100249.22;;;17.69
50496;BMP280;38806;51.554;5.704;2022-08-19T06:45:02;100276.97;;;17.67
50496;BMP280;38806;51.554;5.704;2022-08-19T06:47:06;100287.16;;;17.74
50496;BMP280;38806;51.554;5.704;2022-08-19T06:49:07;100306.34;;;17.76
50496;BMP280;38806;51.554;5.704;2022-08-19T06:51:10;100309.63;;;17.82
50496;BMP280;38806;51.554;5.704;2022-08-19T06:53:10;100316.72;;;17.93
50496;BMP280;38806;51.554;5.704;2022-08-19T06:55:11;100359.16;;;17.88
50496;BMP280;38806;51.554;5.704;2022-08-19T06:57:11;100383.81;;;17.90
50496;BMP280;38806;51.554;5.704;2022-08-19T06:59:18;100380.03;;;18.01
50496;BMP280;38806;51.554;5.704;2022-08-19T07:01:19;100403.84;;;18.08
50496;BMP280;38806;51.554;5.704;2022-08-19T07:03:20;100423.44;;;18.22
50496;BMP280;38806;51.554;5.704;2022-08-19T07:05:21;100453.97;;;18.28
50496;BMP280;38806;51.554;5.704;2022-08-19T07:07:21;100511.66;;;18.26
50496;BMP280;38806;51.554;5.704;2022-08-19T07:09:22;100510.91;;;18.33
50496;BMP280;38806;51.554;5.704;2022-08-19T07:11:22;100534.19;;;18.42
50496;BMP280;38806;51.554;5.704;2022-08-19T07:13:22;100568.88;;;18.49
50496;BMP280;38806;51.554;5.704;2022-08-19T07:15:23;100612.13;;;18.53
50496;BMP280;38806;51.554;5.704;2022-08-19T07:17:23;100632.47;;;18.59
50496;BMP280;38806;51.554;5.704;2022-08-19T07:19:25;100653.19;;;18.62
50496;BMP280;38806;51.554;5.704;2022-08-19T07:21:28;100661.38;;;18.62
50496;BMP280;38806;51.554;5.704;2022-08-19T07:23:28;100653.03;;;18.68
50496;BMP280;38806;51.554;5.704;2022-08-19T07:25:29;100669.03;;;18.71
50496;BMP280;38806;51.554;5.704;2022-08-19T07:27:29;100696.63;;;18.76
50496;BMP280;38806;51.554;5.704;2022-08-19T07:29:32;100681.75;;;18.77
50496;BMP280;38806;51.554;5.704;2022-08-19T07:31:33;100657.97;;;18.85
50496;BMP280;38806;51.554;5.704;2022-08-19T07:33:37;100678.50;;;18.86
50496;BMP280;38806;51.554;5.704;2022-08-19T07:35:38;100687.63;;;18.88
50496;BMP280;38806;51.554;5.704;2022-08-19T07:37:38;100689.25;;;18.91
50496;BMP280;38806;51.554;5.704;2022-08-19T07:39:44;100696.56;;;19.04
50496;BMP280;38806;51.554;5.704;2022-08-19T07:41:45;100701.28;;;19.11
50496;BMP280;38806;51.554;5.704;2022-08-19T07:43:47;100743.13;;;19.14
50496;BMP280;38806;51.554;5.704;2022-08-19T07:45:48;100758.56;;;19.26
50496;BMP280;38806;51.554;5.704;2022-08-19T07:47:48;100805.84;;;19.29
50496;BMP280;38806;51.554;5.704;2022-08-19T07:49:49;100803.31;;;19.38
50496;BMP280;38806;51.554;5.704;2022-08-19T07:52:04;100896.09;;;19.46
50496;BMP280;38806;51.554;5.704;2022-08-19T07:54:05;100830.69;;;19.69
50496;BMP280;38806;51.554;5.704;2022-08-19T07:56:06;100947.44;;;19.63
50496;BMP280;38806;51.554;5.704;2022-08-19T07:58:07;100894.00;;;19.67
50496;BMP280;38806;51.554;5.704;2022-08-19T08:00:08;100849.81;;;19.84
50496;BMP280;38806;51.554;5.704;2022-08-19T08:02:08;100918.78;;;19.77
50496;BMP280;38806;51.554;5.704;2022-08-19T08:04:09;100905.34;;;19.94
50496;BMP280;38806;51.554;5.704;2022-08-19T08:06:28;101041.50;;;20.05
50496;BMP280;38806;51.554;5.704;2022-08-19T08:08:47;101003.03;;;19.88
50496;BMP280;38806;51.554;5.704;2022-08-19T08:11:06;100874.56;;;20.24
50496;BMP280;38806;51.554;5.704;2022-08-19T08:13:07;100995.84;;;20.21
50496;BMP280;38806;51.554;5.704;2022-08-19T08:15:14;101045.50;;;20.04
50496;BMP280;38806;51.554;5.704;2022-08-19T08:17:20;101083.97;;;20.21
50496;BMP280;38806;51.554;5.704;2022-08-19T08:19:22;101059.91;;;20.12
50496;BMP280;38806;51.554;5.704;2022-08-19T08:21:23;101096.91;;;20.21
50496;BMP280;38806;51.554;5.704;2022-08-19T08:23:23;101068.69;;;20.34
50496;BMP280;38806;51.554;5.704;2022-08-19T08:25:29;101146.88;;;20.44
50496;BMP280;38806;51.554;5.704;2022-08-19T08:27:29;101172.75;;;20.51
50496;BMP280;38806;51.554;5.704;2022-08-19T08:29:31;101252.22;;;20.53
50496;BMP280;38806;51.554;5.704;2022-08-19T08:31:31;101243.09;;;20.50
50496;BMP280;38806;51.554;5.704;2022-08-19T08:33:33;101259.06;;;20.75
50496;BMP280;38806;51.554;5.704;2022-08-19T08:35:34;101227.41;;;21.10
50496;BMP280;38806;51.554;5.704;2022-08-19T08:37:35;101300.19;;;21.20
50496;BMP280;38806;51.554;5.704;2022-08-19T08:39:35;101488.50;;;21.01
50496;BMP280;38806;51.554;5.704;2022-08-19T08:44:02;101559.81;;;22.49
50496;BMP280;38806;51.554;5.704;2022-08-19T08:46:08;101828.75;;;21.94
50496;BMP280;38806;51.554;5.704;2022-08-19T08:48:18;101647.47;;;21.75
50496;BMP280;38806;51.554;5.704;2022-08-19T08:50:25;101553.59;;;22.48
50496;BMP280;38806;51.554;5.704;2022-08-19T08:52:31;101673.28;;;22.31
50496;BMP280;38806;51.554;5.704;2022-08-19T08:54:43;101715.44;;;22.79
50496;BMP280;38806;51.554;5.704;2022-08-19T08:56:43;101768.84;;;23.76
50496;BMP280;38806;51.554;5.704;2022-08-19T08:59:04;101761.00;;;23.43
50496;BMP280;38806;51.554;5.704;2022-08-19T09:01:11;101806.44;;;23.66
50496;BMP280;38806;51.554;5.704;2022-08-19T09:03:26;101833.53;;;23.62
50496;BMP280;38806;51.554;5.704;2022-08-19T09:05:57;101786.34;;;24.84
50496;BMP280;38806;51.554;5.704;2022-08-19T09:08:08;101951.47;;;25.24
50496;BMP280;38806;51.554;5.704;2022-08-19T09:10:20;101859.00;;;26.14
50496;BMP280;38806;51.554;5.704;2022-08-19T09:14:45;102009.16;;;26.90
50496;BMP280;38806;51.554;5.704;2022-08-19T09:16:47;102023.91;;;26.33
50496;BMP280;38806;51.554;5.704;2022-08-19T09:18:52;102081.53;;;25.55
50496;BMP280;38806;51.554;5.704;2022-08-19T09:20:53;101901.13;;;26.59
50496;BMP280;38806;51.554;5.704;2022-08-19T09:22:53;101918.81;;;27.00
50496;BMP280;38806;51.554;5.704;2022-08-19T09:24:54;101802.47;;;27.51
50496;BMP280;38806;51.554;5.704;2022-08-19T09:26:55;101792.69;;;27.98
50496;BMP280;38806;51.554;5.704;2022-08-19T09:28:55;101911.59;;;27.70
50496;BMP280;38806;51.554;5.704;2022-08-19T09:30:56;101987.50;;;25.75
50496;BMP280;38806;51.554;5.704;2022-08-19T09:32:58;101948.81;;;26.08
50496;BMP280;38806;51.554;5.704;2022-08-19T09:34:59;101833.00;;;26.88
50496;BMP280;38806;51.554;5.704;2022-08-19T09:37:00;101757.50;;;27.60
50496;BMP280;38806;51.554;5.704;2022-08-19T09:39:03;101982.00;;;25.75
50496;BMP280;38806;51.554;5.704;2022-08-19T09:41:05;101897.91;;;26.53
50496;BMP280;38806;51.554;5.704;2022-08-19T09:43:06;102052.25;;;24.64
50496;BMP280;38806;51.554;5.704;2022-08-19T09:45:08;101867.59;;;25.17
50496;BMP280;38806;51.554;5.704;2022-08-19T09:47:09;101770.50;;;25.59
50496;BMP280;38806;51.554;5.704;2022-08-19T09:49:10;101733.25;;;25.33
50496;BMP280;38806;51.554;5.704;2022-08-19T09:51:13;101924.25;;;25.03
50496;BMP280;38806;51.554;5.704;2022-08-19T09:53:16;101736.16;;;24.76
50496;BMP280;38806;51.554;5.704;2022-08-19T09:55:17;101725.34;;;24.95
50496;BMP280;38806;51.554;5.704;2022-08-19T09:57:17;101767.88;;;25.01
50496;BMP280;38806;51.554;5.704;2022-08-19T09:59:17;101827.50;;;24.74
50496;BMP280;38806;51.554;5.704;2022-08-19T10:01:21;101761.81;;;25.62
50496;BMP280;38806;51.554;5.704;2022-08-19T10:03:22;102004.81;;;24.33
50496;BMP280;38806;51.554;5.704;2022-08-19T10:05:22;101831.44;;;24.88
50496;BMP280;38806;51.554;5.704;2022-08-19T10:07:41;101881.22;;;24.83
50496;BMP280;38806;51.554;5.704;2022-08-19T10:09:42;101798.75;;;25.42
50496;BMP280;38806;51.554;5.704;2022-08-19T10:11:44;101790.06;;;26.14
50496;BMP280;38806;51.554;5.704;2022-08-19T10:13:49;101970.19;;;24.93
50496;BMP280;38806;51.554;5.704;2022-08-19T10:15:51;101871.75;;;25.26
50496;BMP280;38806;51.554;5.704;2022-08-19T10:17:52;101793.09;;;26.09
50496;BMP280;38806;51.554;5.704;2022-08-19T10:19:52;101942.69;;;24.78
50496;BMP280;38806;51.554;5.704;2022-08-19T10:21:53;101895.75;;;24.76
50496;BMP280;38806;51.554;5.704;2022-08-19T10:23:56;101866.88;;;25.41
50496;BMP280;38806;51.554;5.704;2022-08-19T10:25:59;101813.34;;;25.86
50496;BMP280;38806;51.554;5.704;2022-08-19T10:28:00;101644.84;;;27.30
50496;BMP280;38806;51.554;5.704;2022-08-19T10:30:00;101754.25;;;26.87
50496;BMP280;38806;51.554;5.704;2022-08-19T10:32:03;101770.22;;;26.89
50496;BMP280;38806;51.554;5.704;2022-08-19T10:34:04;101874.69;;;25.53
50496;BMP280;38806;51.554;5.704;2022-08-19T10:36:07;101819.38;;;26.37
50496;BMP280;38806;51.554;5.704;2022-08-19T10:38:09;101845.50;;;27.45
50496;BMP280;38806;51.554;5.704;2022-08-19T10:40:10;102069.31;;;26.57
50496;BMP280;38806;51.554;5.704;2022-08-19T10:42:11;101720.28;;;27.52
50496;BMP280;38806;51.554;5.704;2022-08-19T10:44:13;101631.41;;;28.69
50496;BMP280;38806;51.554;5.704;2022-08-19T10:46:15;101835.31;;;28.65
50496;BMP280;38806;51.554;5.704;2022-08-19T10:48:15;101880.19;;;27.65
50496;BMP280;38806;51.554;5.704;2022-08-19T10:50:15;101930.72;;;26.76
50496;BMP280;38806;51.554;5.704;2022-08-19T10:52:51;101863.97;;;26.60
50496;BMP280;38806;51.554;5.704;2022-08-19T10:54:51;101689.16;;;27.42
50496;BMP280;38806;51.554;5.704;2022-08-19T10:57:10;101742.94;;;27.70
50496;BMP280;38806;51.554;5.704;2022-08-19T10:59:11;101789.53;;;25.99
50496;BMP280;38806;51.554;5.704;2022-08-19T11:01:13;101724.13;;;27.97
50496;BMP280;38806;51.554;5.704;2022-08-19T11:03:13;101719.06;;;27.93
50496;BMP280;38806;51.554;5.704;2022-08-19T11:05:14;101859.31;;;27.26
50496;BMP280;38806;51.554;5.704;2022-08-19T11:07:14;101685.28;;;28.57
50496;BMP280;38806;51.554;5.704;2022-08-19T11:09:18;101775.81;;;28.35
50496;BMP280;38806;51.554;5.704;2022-08-19T11:11:18;101708.06;;;28.15
50496;BMP280;38806;51.554;5.704;2022-08-19T11:13:18;101719.97;;;29.33
50496;BMP280;38806;51.554;5.704;2022-08-19T11:15:19;101890.34;;;28.20
50496;BMP280;38806;51.554;5.704;2022-08-19T11:17:19;101612.28;;;29.86
50496;BMP280;38806;51.554;5.704;2022-08-19T11:19:20;101799.91;;;29.48
50496;BMP280;38806;51.554;5.704;2022-08-19T11:21:26;101735.19;;;30.23
50496;BMP280;38806;51.554;5.704;2022-08-19T11:23:27;101978.53;;;28.74
50496;BMP280;38806;51.554;5.704;2022-08-19T11:25:27;101906.72;;;27.32
50496;BMP280;38806;51.554;5.704;2022-08-19T11:27:27;101876.50;;;26.44
50496;BMP280;38806;51.554;5.704;2022-08-19T11:29:28;101886.78;;;25.99
50496;BMP280;38806;51.554;5.704;2022-08-19T11:31:31;101694.34;;;27.76
50496;BMP280;38806;51.554;5.704;2022-08-19T11:33:32;101684.34;;;27.62
50496;BMP280;38806;51.554;5.704;2022-08-19T11:35:32;101526.69;;;29.57
50496;BMP280;38806;51.554;5.704;2022-08-19T11:37:33;101592.94;;;30.98
50496;BMP280;38806;51.554;5.704;2022-08-19T11:39:37;101650.34;;;30.94